createdAt,value
2017-10-11T00:02:13.208Z,14.10
2017-10-11T00:04:42.111Z,14.20
2017-10-11T00:07:10.245Z,14.40
2017-10-11T00:09:38.402Z,14.30
2017-10-11T00:12:06.524Z,14.30
2017-10-11T00:14:34.661Z,14.40
2017-10-11T00:17:03.573Z,14.40
2017-10-11T00:19:31.711Z,14.40
2017-10-11T00:22:00.620Z,14.40
2017-10-11T00:24:28.763Z,14.40
2017-10-11T00:26:56.897Z,14.40
2017-10-11T00:29:25.025Z,14.30
2017-10-11T00:31:53.934Z,14.30
2017-10-11T00:34:22.060Z,14.30
2017-10-11T00:36:50.955Z,14.40
2017-10-11T00:39:19.131Z,14.30
2017-10-11T00:41:47.257Z,14.40
2017-10-11T00:44:15.420Z,14.20
2017-10-11T00:46:43.550Z,14.20
2017-10-11T00:49:11.688Z,14.20
2017-10-11T00:51:39.808Z,14.20
2017-10-11T00:54:08.724Z,14.20
2017-10-11T00:56:36.865Z,14.20
2017-10-11T00:59:05.777Z,14.10
2017-10-11T01:01:33.921Z,14.10
2017-10-11T01:04:02.830Z,14.10
2017-10-11T01:06:31.760Z,14.20
2017-10-11T01:08:59.896Z,14.20
2017-10-11T01:11:28.793Z,14.20
2017-10-11T01:13:56.918Z,14.20
2017-10-11T01:16:25.050Z,14.20
2017-10-11T01:18:53.208Z,14.20
2017-10-11T01:21:21.336Z,14.20
2017-10-11T01:23:49.477Z,14.20
2017-10-11T01:26:18.928Z,14.30
2017-10-11T01:28:47.843Z,14.20
2017-10-11T01:31:15.976Z,14.20
2017-10-11T01:33:44.127Z,14.30
2017-10-11T01:36:12.241Z,14.30
2017-10-11T01:38:41.138Z,14.30
2017-10-11T01:41:10.044Z,14.20
2017-10-11T01:43:38.952Z,14.30
2017-10-11T01:46:07.089Z,14.20
2017-10-11T01:48:35.201Z,14.20
2017-10-11T01:51:03.364Z,14.20
2017-10-11T01:53:31.496Z,14.10
2017-10-11T01:56:00.397Z,14.10
2017-10-11T01:58:29.610Z,14.00
2017-10-11T02:00:58.491Z,14.00
2017-10-11T02:03:26.645Z,13.90
2017-10-11T02:05:55.541Z,14.00
2017-10-11T02:08:24.460Z,14.10
2017-10-11T02:10:52.591Z,14.00
2017-10-11T02:13:20.739Z,14.10
2017-10-11T02:15:48.881Z,14.20
2017-10-11T02:18:17.117Z,14.10
2017-10-11T02:20:45.260Z,14.10
2017-10-11T02:23:13.388Z,14.10
2017-10-11T02:25:41.528Z,14.00
2017-10-11T02:28:09.657Z,13.90
2017-10-11T02:30:37.834Z,13.70
2017-10-11T02:33:06.063Z,13.60
2017-10-11T02:35:34.970Z,13.80
2017-10-11T02:38:03.094Z,13.70
2017-10-11T02:40:31.238Z,13.80
2017-10-11T02:43:00.141Z,13.80
2017-10-11T02:45:28.272Z,13.90
2017-10-11T02:47:56.419Z,13.90
2017-10-11T02:50:24.549Z,13.90
2017-10-11T02:52:54.328Z,13.70
2017-10-11T02:55:23.220Z,13.50
2017-10-11T02:57:52.117Z,13.60
2017-10-11T03:00:20.274Z,13.60
2017-10-11T03:02:49.169Z,13.60
2017-10-11T03:05:17.317Z,13.60
2017-10-11T03:07:45.461Z,13.60
2017-10-11T03:10:13.604Z,13.70
2017-10-11T03:12:41.732Z,13.70
2017-10-11T03:15:10.646Z,13.70
2017-10-11T03:17:38.802Z,13.60
2017-10-11T03:20:07.700Z,13.40
2017-10-11T03:22:36.615Z,13.50
2017-10-11T03:25:04.752Z,13.50
2017-10-11T03:27:32.889Z,13.50
2017-10-11T03:30:01.021Z,13.60
2017-10-11T03:32:29.163Z,13.60
2017-10-11T03:34:57.307Z,13.60
2017-10-11T03:37:25.460Z,13.60
2017-10-11T03:39:54.244Z,13.70
2017-10-11T03:42:22.373Z,13.60
2017-10-11T03:44:51.832Z,13.50
2017-10-11T03:47:20.747Z,13.40
2017-10-11T03:49:48.884Z,13.40
2017-10-11T03:52:17.024Z,13.50
2017-10-11T03:54:45.921Z,13.50
2017-10-11T03:57:14.067Z,13.50
2017-10-11T03:59:42.204Z,13.30
2017-10-11T04:02:10.337Z,13.10
2017-10-11T04:04:38.468Z,13.10
2017-10-11T04:07:06.622Z,13.00
2017-10-11T04:09:34.750Z,13.10
2017-10-11T04:12:03.658Z,12.90
2017-10-11T04:14:31.784Z,12.80
2017-10-11T04:16:59.933Z,12.90
2017-10-11T04:19:28.056Z,12.70
2017-10-11T04:21:56.963Z,12.70
2017-10-11T04:24:25.124Z,12.70
2017-10-11T04:26:53.278Z,12.70
2017-10-11T04:29:21.993Z,12.60
2017-10-11T04:31:50.896Z,12.50
2017-10-11T04:34:20.265Z,12.50
2017-10-11T04:36:48.388Z,12.70
2017-10-11T04:39:16.531Z,12.50
2017-10-11T04:41:44.665Z,12.70
2017-10-11T04:44:12.819Z,12.50
2017-10-11T04:46:40.953Z,12.40
2017-10-11T04:49:09.083Z,12.30
2017-10-11T04:51:37.227Z,12.30
2017-10-11T04:54:05.414Z,12.20
2017-10-11T04:56:33.576Z,12.20
2017-10-11T04:59:01.720Z,12.30
2017-10-11T05:01:29.896Z,12.20
2017-10-11T05:03:58.082Z,12.10
2017-10-11T05:06:26.214Z,12.00
2017-10-11T05:08:55.121Z,12.00
2017-10-11T05:11:23.253Z,11.90
2017-10-11T05:13:51.470Z,12.00
2017-10-11T05:16:19.629Z,12.00
2017-10-11T05:18:47.761Z,12.10
2017-10-11T05:21:15.897Z,12.10
2017-10-11T05:23:44.041Z,12.10
2017-10-11T05:26:12.165Z,12.20
2017-10-11T05:28:40.314Z,12.10
2017-10-11T05:31:08.476Z,12.00
2017-10-11T05:33:36.612Z,11.80
2017-10-11T05:36:04.732Z,12.10
2017-10-11T05:38:32.865Z,12.00
2017-10-11T05:41:01.770Z,11.80
2017-10-11T05:43:29.919Z,11.80
2017-10-11T05:45:58.836Z,11.60
2017-10-11T05:48:26.958Z,11.60
2017-10-11T05:50:55.100Z,11.60
2017-10-11T05:53:23.220Z,11.90
2017-10-11T05:55:52.113Z,11.70
2017-10-11T05:58:20.277Z,11.70
2017-10-11T06:00:48.412Z,11.80
2017-10-11T06:03:16.545Z,11.90
2017-10-11T06:05:45.472Z,12.10
2017-10-11T06:08:13.699Z,12.10
2017-10-11T06:10:41.821Z,12.40
2017-10-11T06:13:09.998Z,12.50
2017-10-11T06:15:38.124Z,12.40
2017-10-11T06:18:07.044Z,12.20
2017-10-11T06:20:35.220Z,12.20
2017-10-11T06:23:03.362Z,12.20
2017-10-11T06:25:33.137Z,12.30
2017-10-11T06:28:01.273Z,12.30
2017-10-11T06:30:29.455Z,12.30
2017-10-11T06:32:57.589Z,12.40
2017-10-11T06:35:26.494Z,12.60
2017-10-11T06:37:54.638Z,12.60
2017-10-11T06:40:22.790Z,12.70
2017-10-11T06:42:50.932Z,12.70
2017-10-11T06:45:19.073Z,12.90
2017-10-11T06:47:47.973Z,13.00
2017-10-11T06:50:16.117Z,13.00
2017-10-11T06:52:44.264Z,13.20
2017-10-11T06:55:12.412Z,13.30
2017-10-11T06:57:41.397Z,13.40
2017-10-11T07:00:09.533Z,13.30
2017-10-11T07:02:38.539Z,13.20
2017-10-11T07:05:07.447Z,13.30
2017-10-11T07:07:35.585Z,13.30
2017-10-11T07:10:04.489Z,13.50
2017-10-11T07:12:33.304Z,13.40
2017-10-11T07:15:02.181Z,13.50
2017-10-11T07:17:30.449Z,13.60
2017-10-11T07:19:58.599Z,13.70
2017-10-11T07:22:26.744Z,13.80
2017-10-11T07:24:54.911Z,13.80
2017-10-11T07:27:23.037Z,13.70
2017-10-11T07:29:51.952Z,13.80
2017-10-11T07:32:20.118Z,13.70
2017-10-11T07:34:49.084Z,13.80
2017-10-11T07:37:18.010Z,13.90
2017-10-11T07:39:46.152Z,13.90
2017-10-11T07:42:14.964Z,14.00
2017-10-11T07:44:43.129Z,14.00
2017-10-11T07:47:11.245Z,14.00
2017-10-11T07:49:39.417Z,14.00
2017-10-11T07:52:07.554Z,14.10
2017-10-11T07:54:35.703Z,14.10
2017-10-11T07:57:04.609Z,14.20
2017-10-11T07:59:32.753Z,14.20
2017-10-11T08:02:01.661Z,14.50
2017-10-11T08:04:29.795Z,14.50
2017-10-11T08:06:57.940Z,14.50
2017-10-11T08:09:26.110Z,14.50
2017-10-11T08:11:54.889Z,14.40
2017-10-11T08:14:23.025Z,14.50
2017-10-11T08:16:51.952Z,14.60
2017-10-11T08:19:20.080Z,14.60
2017-10-11T08:21:49.002Z,14.70
2017-10-11T08:24:17.217Z,14.70
2017-10-11T08:26:45.359Z,14.70
2017-10-11T08:29:13.516Z,14.80
2017-10-11T08:31:41.636Z,14.70
2017-10-11T08:34:09.794Z,14.70
2017-10-11T08:36:37.939Z,14.70
2017-10-11T08:39:06.086Z,14.80
2017-10-11T08:41:35.099Z,14.80
2017-10-11T08:44:03.226Z,14.80
2017-10-11T08:46:31.366Z,14.80
2017-10-11T08:48:59.501Z,14.80
2017-10-11T08:51:28.426Z,15.00
2017-10-11T08:53:56.553Z,14.90
2017-10-11T08:56:25.481Z,15.20
2017-10-11T08:58:53.615Z,15.20
2017-10-11T09:01:22.532Z,15.40
2017-10-11T09:03:51.428Z,15.30
2017-10-11T09:06:20.252Z,15.30
2017-10-11T09:08:48.425Z,15.40
2017-10-11T09:11:16.569Z,15.50
2017-10-11T09:13:44.712Z,15.60
2017-10-11T09:16:12.845Z,15.60
2017-10-11T09:18:40.991Z,15.60
2017-10-11T09:21:09.145Z,15.60
2017-10-11T09:23:37.657Z,15.70
2017-10-11T09:26:05.788Z,15.70
2017-10-11T09:28:35.354Z,15.70
2017-10-11T09:31:03.476Z,15.70
2017-10-11T09:33:31.633Z,15.70
2017-10-11T09:36:00.533Z,15.90
2017-10-11T09:38:29.428Z,15.90
2017-10-11T09:40:57.594Z,15.80
2017-10-11T09:43:25.720Z,15.90
2017-10-11T09:45:53.867Z,15.90
2017-10-11T09:48:22.033Z,15.90
2017-10-11T09:50:50.179Z,16.00
2017-10-11T09:53:19.094Z,16.00
2017-10-11T09:55:47.228Z,16.00
2017-10-11T09:58:16.138Z,16.10
2017-10-11T10:00:44.810Z,16.00
2017-10-11T10:03:13.729Z,16.10
2017-10-11T10:05:42.665Z,16.20
2017-10-11T10:08:10.796Z,16.20
2017-10-11T10:10:38.942Z,16.10
2017-10-11T10:13:07.831Z,16.20
2017-10-11T10:15:35.982Z,16.20
2017-10-11T10:18:04.112Z,16.30
2017-10-11T10:20:32.241Z,16.40
2017-10-11T10:23:01.144Z,16.50
2017-10-11T10:25:29.272Z,16.50
2017-10-11T10:27:58.920Z,16.60
2017-10-11T10:30:27.063Z,16.60
2017-10-11T10:32:55.193Z,16.80
2017-10-11T10:35:23.329Z,16.90
2017-10-11T10:37:52.260Z,17.10
2017-10-11T10:40:20.398Z,17.00
2017-10-11T10:42:51.077Z,17.10
2017-10-11T10:45:19.233Z,17.00
2017-10-11T10:47:47.360Z,17.00
2017-10-11T10:50:16.292Z,16.90
2017-10-11T10:52:44.404Z,16.90
2017-10-11T10:55:12.575Z,16.90
2017-10-11T10:57:40.717Z,16.80
2017-10-11T11:00:08.869Z,16.90
2017-10-11T11:02:37.013Z,17.00
2017-10-11T11:05:05.904Z,17.20
2017-10-11T11:07:35.559Z,17.10
2017-10-11T11:10:03.700Z,17.00
2017-10-11T11:12:32.598Z,17.00
2017-10-11T11:15:00.721Z,16.90
2017-10-11T11:17:28.866Z,17.00
2017-10-11T11:19:56.995Z,17.10
2017-10-11T11:22:25.876Z,17.20
2017-10-11T11:24:54.778Z,17.10
2017-10-11T11:27:23.681Z,17.00
2017-10-11T11:29:51.847Z,17.00
2017-10-11T11:32:21.731Z,17.10
2017-10-11T11:34:49.887Z,17.00
2017-10-11T11:37:19.034Z,17.20
2017-10-11T11:39:47.188Z,17.20
2017-10-11T11:42:16.092Z,17.20
2017-10-11T11:44:44.252Z,17.20
2017-10-11T11:47:12.372Z,17.30
2017-10-11T11:49:40.520Z,17.40
2017-10-11T11:52:08.662Z,17.50
2017-10-11T11:54:36.808Z,17.50
2017-10-11T11:57:04.957Z,17.60
2017-10-11T11:59:33.109Z,17.60
2017-10-11T12:02:01.230Z,17.60
2017-10-11T12:04:29.378Z,17.70
2017-10-11T12:06:57.526Z,17.60
2017-10-11T12:09:26.286Z,17.70
2017-10-11T12:11:55.325Z,17.80
2017-10-11T12:14:24.184Z,17.80
2017-10-11T12:16:53.071Z,17.80
2017-10-11T12:19:21.983Z,17.90
2017-10-11T12:21:50.108Z,17.90
2017-10-11T12:24:19.022Z,17.90
2017-10-11T12:26:48.468Z,17.80
2017-10-11T12:29:17.378Z,17.80
2017-10-11T12:31:45.501Z,17.80
2017-10-11T12:34:14.400Z,17.60
2017-10-11T12:36:42.531Z,17.60
2017-10-11T12:39:10.676Z,17.60
2017-10-11T12:41:38.806Z,17.60
2017-10-11T12:44:06.949Z,17.40
2017-10-11T12:46:35.883Z,17.40
2017-10-11T12:49:04.881Z,17.30
2017-10-11T12:51:33.976Z,17.30
2017-10-11T12:54:02.118Z,17.30
2017-10-11T12:56:31.017Z,17.50
2017-10-11T12:58:59.152Z,17.40
2017-10-11T13:01:27.300Z,17.50
2017-10-11T13:03:55.440Z,17.50
2017-10-11T13:06:24.700Z,17.60
2017-10-11T13:08:52.833Z,17.60
2017-10-11T13:11:20.969Z,17.50
2017-10-11T13:13:49.115Z,17.60
2017-10-11T13:16:24.073Z,17.50
2017-10-11T13:18:52.228Z,17.40
2017-10-11T13:21:20.369Z,17.40
2017-10-11T13:23:48.517Z,17.40
2017-10-11T13:26:16.652Z,17.30
2017-10-11T13:28:45.564Z,17.20
2017-10-11T13:31:13.695Z,17.20
2017-10-11T13:33:42.180Z,17.20
2017-10-11T13:36:10.321Z,17.30
2017-10-11T13:38:39.015Z,17.20
2017-10-11T13:41:08.854Z,17.30
2017-10-11T13:43:37.004Z,17.40
2017-10-11T13:46:05.160Z,17.60
2017-10-11T13:48:33.738Z,17.80
2017-10-11T13:51:01.883Z,18.10
2017-10-11T13:53:30.023Z,18.40
2017-10-11T13:55:58.157Z,18.80
2017-10-11T13:58:26.300Z,18.90
2017-10-11T14:00:54.460Z,18.90
2017-10-11T14:03:23.365Z,18.60
2017-10-11T14:05:51.505Z,18.60
2017-10-11T14:08:19.662Z,18.90
2017-10-11T14:10:47.820Z,19.10
2017-10-11T14:13:15.964Z,19.80
2017-10-11T14:15:44.105Z,20.30
2017-10-11T14:18:13.005Z,21.80
2017-10-11T14:20:41.150Z,21.70
2017-10-11T14:23:09.446Z,22.30
2017-10-11T14:25:38.360Z,25.40
2017-10-11T14:28:06.505Z,25.30
2017-10-11T14:30:35.403Z,26.10
2017-10-11T14:33:04.313Z,25.90
2017-10-11T14:35:33.232Z,26.60
2017-10-11T14:38:01.360Z,26.70
2017-10-11T14:40:30.270Z,26.90
2017-10-11T14:42:58.402Z,26.90
2017-10-11T14:45:27.412Z,26.30
2017-10-11T14:47:56.306Z,25.50
2017-10-11T14:50:24.476Z,25.50
2017-10-11T14:52:53.372Z,26.60
2017-10-11T14:55:21.540Z,26.50
2017-10-11T14:57:50.437Z,27.70
2017-10-11T15:00:18.572Z,27.70
2017-10-11T15:02:46.713Z,28.10
2017-10-11T15:05:14.868Z,28.80
2017-10-11T15:07:42.999Z,29.30
2017-10-11T15:10:11.148Z,29.20
2017-10-11T15:12:39.285Z,29.00
2017-10-11T15:15:07.432Z,28.20
2017-10-11T15:17:36.357Z,26.50
2017-10-11T15:20:04.514Z,26.40
2017-10-11T15:22:32.646Z,25.50
2017-10-11T15:25:00.785Z,24.70
2017-10-11T15:27:28.934Z,24.50
2017-10-11T15:29:57.080Z,23.50
2017-10-11T15:32:25.994Z,23.00
2017-10-11T15:34:54.125Z,23.00
2017-10-11T15:37:22.268Z,22.70
2017-10-11T15:39:50.412Z,22.00
2017-10-11T15:42:18.554Z,21.60
2017-10-11T15:44:47.455Z,21.00
2017-10-11T15:47:16.376Z,20.60
2017-10-11T15:49:44.533Z,20.60
2017-10-11T15:54:41.574Z,19.90
2017-10-11T15:57:09.776Z,19.80
2017-10-11T15:59:38.691Z,19.40
2017-10-11T16:02:06.844Z,19.20
2017-10-11T16:04:35.031Z,19.10
2017-10-11T16:07:03.203Z,19.10
2017-10-11T16:09:31.334Z,18.90
2017-10-11T16:12:00.264Z,18.70
2017-10-11T16:14:28.506Z,18.70
2017-10-11T16:16:57.406Z,18.40
2017-10-11T16:19:25.611Z,18.40
2017-10-11T16:21:53.742Z,18.00
2017-10-11T16:24:21.898Z,18.00
2017-10-11T16:26:50.034Z,17.90
2017-10-11T16:29:18.173Z,17.60
2017-10-11T16:31:46.352Z,17.60
2017-10-11T16:34:14.499Z,17.60
2017-10-11T16:36:42.646Z,17.30
2017-10-11T16:39:10.813Z,17.20
2017-10-11T16:41:38.949Z,17.10
2017-10-11T16:44:07.095Z,17.00
2017-10-11T16:46:35.244Z,16.90
2017-10-11T16:49:03.401Z,16.90
2017-10-11T16:51:31.561Z,16.60
2017-10-11T16:53:59.694Z,16.60
2017-10-11T16:56:28.616Z,16.50
2017-10-11T16:58:57.509Z,16.40
2017-10-11T17:01:25.653Z,16.30
2017-10-11T17:03:53.809Z,16.30
2017-10-11T17:06:22.723Z,16.50
2017-10-11T17:08:51.654Z,16.60
2017-10-11T17:11:19.782Z,16.60
2017-10-11T17:13:48.682Z,16.10
2017-10-11T17:16:16.826Z,16.10
2017-10-11T17:18:45.789Z,16.20
2017-10-11T17:21:15.699Z,16.10
2017-10-11T17:23:43.892Z,16.10
2017-10-11T17:26:12.053Z,15.80
2017-10-11T17:28:40.203Z,15.80
2017-10-11T17:31:08.335Z,15.90
2017-10-11T17:33:37.241Z,15.80
2017-10-11T17:36:06.164Z,15.80
2017-10-11T17:38:34.292Z,15.80
2017-10-11T17:41:03.219Z,15.90
2017-10-11T17:43:31.343Z,15.80
2017-10-11T17:46:00.251Z,15.70
2017-10-11T17:48:29.192Z,15.50
2017-10-11T17:50:58.847Z,15.30
2017-10-11T17:53:27.757Z,15.00
2017-10-11T17:55:55.908Z,15.00
2017-10-11T17:58:24.885Z,15.20
2017-10-11T18:00:53.013Z,15.20
2017-10-11T18:03:21.160Z,15.00
2017-10-11T18:05:49.302Z,15.00
2017-10-11T18:08:17.450Z,15.00
2017-10-11T18:10:45.616Z,15.20
2017-10-11T18:13:13.745Z,15.00
2017-10-11T18:15:41.900Z,14.80
2017-10-11T18:18:10.810Z,14.80
2017-10-11T18:20:38.961Z,14.70
2017-10-11T18:23:07.880Z,14.70
2017-10-11T18:25:36.065Z,14.60
2017-10-11T18:28:04.193Z,14.70
2017-10-11T18:30:33.120Z,14.60
2017-10-11T18:33:01.449Z,14.70
2017-10-11T18:35:31.074Z,14.60
2017-10-11T18:38:00.018Z,14.60
2017-10-11T18:40:28.170Z,14.60
2017-10-11T18:42:56.359Z,14.40
2017-10-11T18:45:24.510Z,14.40
2017-10-11T18:47:52.688Z,14.40
2017-10-11T18:50:20.832Z,14.00
2017-10-11T18:52:49.743Z,14.00
2017-10-11T18:55:17.897Z,13.90
2017-10-11T18:57:46.801Z,14.00
2017-10-11T19:00:14.978Z,14.00
2017-10-11T19:02:43.151Z,14.20
2017-10-11T19:05:11.320Z,14.20
2017-10-11T19:07:39.519Z,14.30
2017-10-11T19:10:07.679Z,14.00
2017-10-11T19:12:35.832Z,13.90
2017-10-11T19:15:03.993Z,13.80
2017-10-11T19:17:32.929Z,13.60
2017-10-11T19:20:01.082Z,13.60
2017-10-11T19:22:29.234Z,13.30
2017-10-11T19:24:59.389Z,13.60
2017-10-11T19:27:28.722Z,13.60
2017-10-11T19:29:56.880Z,13.60
2017-10-11T19:32:26.007Z,13.70
2017-10-11T19:34:54.929Z,13.50
2017-10-11T19:37:23.096Z,13.50
2017-10-11T19:39:51.242Z,13.40
2017-10-11T19:42:20.183Z,13.50
2017-10-11T19:44:49.074Z,13.40
2017-10-11T19:47:17.225Z,13.50
2017-10-11T19:49:45.385Z,13.40
2017-10-11T19:52:13.571Z,13.30
2017-10-11T19:54:41.680Z,13.30
2017-10-11T19:57:09.850Z,13.30
2017-10-11T19:59:37.985Z,13.50
2017-10-11T20:02:06.164Z,13.20
2017-10-11T20:04:34.317Z,12.80
2017-10-11T20:07:02.485Z,12.80
2017-10-11T20:09:31.410Z,13.10
2017-10-11T20:11:59.538Z,13.10
2017-10-11T20:14:29.467Z,13.10
2017-10-11T20:16:58.345Z,12.90
2017-10-11T20:19:27.271Z,13.00
2017-10-11T20:21:55.418Z,13.00
2017-10-11T20:24:24.332Z,13.00
2017-10-11T20:26:54.297Z,13.00
2017-10-11T20:29:22.452Z,13.10
2017-10-11T20:31:50.609Z,13.10
2017-10-11T20:34:18.730Z,12.90
2017-10-11T20:36:47.644Z,12.80
2017-10-11T20:39:16.541Z,13.00
2017-10-11T20:41:44.772Z,13.00
2017-10-11T20:44:12.895Z,13.10
2017-10-11T20:46:41.057Z,13.10
2017-10-11T20:49:10.957Z,12.80
2017-10-11T20:51:39.851Z,12.60
2017-10-11T20:54:08.003Z,12.60
2017-10-11T20:56:36.906Z,12.50
2017-10-11T20:59:05.822Z,12.50
2017-10-11T21:01:33.977Z,12.40
2017-10-11T21:04:03.076Z,12.40
2017-10-11T21:06:31.993Z,12.60
2017-10-11T21:09:00.130Z,12.60
2017-10-11T21:11:29.024Z,12.40
2017-10-11T21:13:57.932Z,12.40
2017-10-11T21:16:26.078Z,12.40
2017-10-11T21:18:54.974Z,12.20
2017-10-11T21:21:23.878Z,12.40
2017-10-11T21:23:52.009Z,12.40
2017-10-11T21:26:20.165Z,12.50
2017-10-11T21:28:48.284Z,12.40
2017-10-11T21:31:16.432Z,12.60
2017-10-11T21:33:45.338Z,12.40
2017-10-11T21:36:14.254Z,12.50
2017-10-11T21:38:42.393Z,12.50
2017-10-11T21:41:11.300Z,12.40
2017-10-11T21:43:39.464Z,12.40
2017-10-11T21:46:08.367Z,12.50
2017-10-11T21:48:37.277Z,12.40
2017-10-11T21:51:05.403Z,12.40
2017-10-11T21:53:33.517Z,12.10
2017-10-11T21:56:01.667Z,12.10
2017-10-11T21:58:29.799Z,12.10
2017-10-11T22:00:57.957Z,12.10
2017-10-11T22:03:26.075Z,12.00
2017-10-11T22:05:54.997Z,11.80
2017-10-11T22:08:23.892Z,11.90
2017-10-11T22:10:52.037Z,11.90
2017-10-11T22:13:20.155Z,12.10
2017-10-11T22:15:48.300Z,12.30
2017-10-11T22:18:16.424Z,12.60
2017-10-11T22:20:46.462Z,12.70
2017-10-11T22:23:15.372Z,12.90
2017-10-11T22:25:43.524Z,12.90
2017-10-11T22:28:12.431Z,12.30
2017-10-11T22:30:40.552Z,12.30
2017-10-11T22:33:08.717Z,12.20
2017-10-11T22:35:36.845Z,12.00
2017-10-11T22:38:05.001Z,12.20
2017-10-11T22:40:33.907Z,12.10
2017-10-11T22:43:02.813Z,12.10
2017-10-11T22:45:30.944Z,12.10
2017-10-11T22:47:59.844Z,12.30
2017-10-11T22:50:28.746Z,12.10
2017-10-11T22:52:56.876Z,12.10
2017-10-11T22:55:25.817Z,12.40
2017-10-11T22:57:53.952Z,12.40
2017-10-11T23:00:22.145Z,12.20
2017-10-11T23:02:51.053Z,12.10
2017-10-11T23:05:19.282Z,12.10
2017-10-11T23:07:47.389Z,12.00
2017-10-11T23:10:15.519Z,12.00
2017-10-11T23:12:43.661Z,12.10
2017-10-11T23:15:11.777Z,12.10
2017-10-11T23:17:41.878Z,12.20
2017-10-11T23:20:09.999Z,12.20
2017-10-11T23:22:39.363Z,12.40
2017-10-11T23:25:07.456Z,12.50
2017-10-11T23:27:36.358Z,12.20
2017-10-11T23:30:04.491Z,12.20
2017-10-11T23:32:32.628Z,12.20
2017-10-11T23:35:00.788Z,12.20
2017-10-11T23:37:28.904Z,12.10
2017-10-11T23:39:57.028Z,12.20
2017-10-11T23:42:25.167Z,12.20
2017-10-11T23:44:54.065Z,12.10
2017-10-11T23:47:22.959Z,12.10
2017-10-11T23:49:51.859Z,12.00
2017-10-11T23:52:19.980Z,12.10
2017-10-11T23:54:49.740Z,11.80
2017-10-11T23:57:17.900Z,11.80
2017-10-11T23:59:46.786Z,12.10
